sensor_id;sensor_type;location;lat;lon;timestamp;P1;durP1;ratioP1;P2;durP2;ratioP2
71753;SDS011;59593;51.716;7.016;2022-07-24T00:01:59;4.57;;;3.95;;
71753;SDS011;59593;51.716;7.016;2022-07-24T00:04:24;6.85;;;4.60;;
71753;SDS011;59593;51.716;7.016;2022-07-24T00:06:50;6.53;;;4.28;;
71753;SDS011;59593;51.716;7.016;2022-07-24T00:09:16;5.03;;;4.25;;
71753;SDS011;59593;51.716;7.016;2022-07-24T00:11:41;5.45;;;4.18;;
71753;SDS011;59593;51.716;7.016;2022-07-24T00:14:07;4.85;;;4.35;;
71753;SDS011;59593;51.716;7.016;2022-07-24T00:16:33;5.43;;;4.50;;
71753;SDS011;59593;51.716;7.016;2022-07-24T00:18:58;6.95;;;4.82;;
71753;SDS011;59593;51.716;7.016;2022-07-24T00:21:24;5.72;;;4.28;;
71753;SDS011;59593;51.716;7.016;2022-07-24T00:23:50;5.22;;;4.38;;
71753;SDS011;59593;51.716;7.016;2022-07-24T00:26:15;5.85;;;4.60;;
71753;SDS011;59593;51.716;7.016;2022-07-24T00:28:41;5.07;;;4.53;;
71753;SDS011;59593;51.716;7.016;2022-07-24T00:31:07;5.28;;;4.60;;
71753;SDS011;59593;51.716;7.016;2022-07-24T00:33:32;7.78;;;4.82;;
71753;SDS011;59593;51.716;7.016;2022-07-24T00:35:58;5.28;;;4.78;;
71753;SDS011;59593;51.716;7.016;2022-07-24T00:38:24;5.22;;;4.65;;
71753;SDS011;59593;51.716;7.016;2022-07-24T00:40:49;5.68;;;4.78;;
71753;SDS011;59593;51.716;7.016;2022-07-24T00:43:15;8.75;;;5.25;;
71753;SDS011;59593;51.716;7.016;2022-07-24T00:45:42;7.18;;;5.10;;
71753;SDS011;59593;51.716;7.016;2022-07-24T00:48:08;6.95;;;5.22;;
71753;SDS011;59593;51.716;7.016;2022-07-24T00:50:34;5.47;;;4.47;;
71753;SDS011;59593;51.716;7.016;2022-07-24T00:53:00;5.85;;;4.68;;
71753;SDS011;59593;51.716;7.016;2022-07-24T00:55:26;5.28;;;4.78;;
71753;SDS011;59593;51.716;7.016;2022-07-24T00:57:52;7.22;;;5.25;;
71753;SDS011;59593;51.716;7.016;2022-07-24T01:00:21;5.30;;;4.80;;
71753;SDS011;59593;51.716;7.016;2022-07-24T01:02:47;4.95;;;4.22;;
71753;SDS011;59593;51.716;7.016;2022-07-24T01:05:14;6.40;;;4.82;;
71753;SDS011;59593;51.716;7.016;2022-07-24T01:07:41;6.22;;;4.97;;
71753;SDS011;59593;51.716;7.016;2022-07-24T01:10:06;7.50;;;4.90;;
71753;SDS011;59593;51.716;7.016;2022-07-24T01:12:33;4.78;;;4.38;;
71753;SDS011;59593;51.716;7.016;2022-07-24T01:15:01;5.53;;;4.40;;
71753;SDS011;59593;51.716;7.016;2022-07-24T01:17:31;7.38;;;5.05;;
71753;SDS011;59593;51.716;7.016;2022-07-24T01:19:59;5.95;;;4.50;;
71753;SDS011;59593;51.716;7.016;2022-07-24T01:22:26;4.88;;;4.47;;
71753;SDS011;59593;51.716;7.016;2022-07-24T01:24:52;5.35;;;4.72;;
71753;SDS011;59593;51.716;7.016;2022-07-24T01:27:19;5.40;;;4.70;;
71753;SDS011;59593;51.716;7.016;2022-07-24T01:29:46;5.15;;;4.60;;
71753;SDS011;59593;51.716;7.016;2022-07-24T01:32:12;5.88;;;4.90;;
71753;SDS011;59593;51.716;7.016;2022-07-24T01:34:37;5.25;;;4.55;;
71753;SDS011;59593;51.716;7.016;2022-07-24T01:37:03;6.30;;;4.90;;
71753;SDS011;59593;51.716;7.016;2022-07-24T01:39:29;5.75;;;4.70;;
71753;SDS011;59593;51.716;7.016;2022-07-24T01:41:54;6.95;;;4.90;;
71753;SDS011;59593;51.716;7.016;2022-07-24T01:44:20;5.47;;;4.97;;
71753;SDS011;59593;51.716;7.016;2022-07-24T01:46:45;5.78;;;4.75;;
71753;SDS011;59593;51.716;7.016;2022-07-24T01:49:11;5.85;;;5.18;;
71753;SDS011;59593;51.716;7.016;2022-07-24T01:51:37;6.03;;;5.10;;
71753;SDS011;59593;51.716;7.016;2022-07-24T01:54:03;5.43;;;4.93;;
71753;SDS011;59593;51.716;7.016;2022-07-24T01:56:29;5.38;;;4.82;;
71753;SDS011;59593;51.716;7.016;2022-07-24T01:58:55;6.07;;;4.60;;
71753;SDS011;59593;51.716;7.016;2022-07-24T02:01:21;6.55;;;5.20;;
71753;SDS011;59593;51.716;7.016;2022-07-24T02:03:47;5.30;;;4.80;;
71753;SDS011;59593;51.716;7.016;2022-07-24T02:06:13;5.45;;;4.90;;
71753;SDS011;59593;51.716;7.016;2022-07-24T02:08:39;7.13;;;5.00;;
71753;SDS011;59593;51.716;7.016;2022-07-24T02:11:11;6.25;;;5.00;;
71753;SDS011;59593;51.716;7.016;2022-07-24T02:13:37;7.55;;;5.32;;
71753;SDS011;59593;51.716;7.016;2022-07-24T02:16:02;6.35;;;5.45;;
71753;SDS011;59593;51.716;7.016;2022-07-24T02:18:28;7.28;;;5.57;;
71753;SDS011;59593;51.716;7.016;2022-07-24T02:20:54;7.22;;;5.18;;
71753;SDS011;59593;51.716;7.016;2022-07-24T02:23:20;7.32;;;5.93;;
71753;SDS011;59593;51.716;7.016;2022-07-24T02:25:46;6.53;;;5.70;;
71753;SDS011;59593;51.716;7.016;2022-07-24T02:28:13;8.85;;;6.20;;
71753;SDS011;59593;51.716;7.016;2022-07-24T02:30:40;6.93;;;5.80;;
71753;SDS011;59593;51.716;7.016;2022-07-24T02:33:06;6.93;;;6.07;;
71753;SDS011;59593;51.716;7.016;2022-07-24T02:35:32;7.60;;;6.00;;
71753;SDS011;59593;51.716;7.016;2022-07-24T02:37:58;7.30;;;5.90;;
71753;SDS011;59593;51.716;7.016;2022-07-24T02:40:23;7.55;;;6.22;;
71753;SDS011;59593;51.716;7.016;2022-07-24T02:42:49;8.32;;;6.50;;
71753;SDS011;59593;51.716;7.016;2022-07-24T02:45:14;7.72;;;6.40;;
71753;SDS011;59593;51.716;7.016;2022-07-24T02:47:50;7.53;;;6.30;;
71753;SDS011;59593;51.716;7.016;2022-07-24T02:50:18;10.38;;;6.88;;
71753;SDS011;59593;51.716;7.016;2022-07-24T02:52:45;7.07;;;6.38;;
71753;SDS011;59593;51.716;7.016;2022-07-24T02:55:11;8.27;;;5.88;;
71753;SDS011;59593;51.716;7.016;2022-07-24T02:57:37;7.80;;;6.22;;
71753;SDS011;59593;51.716;7.016;2022-07-24T03:00:04;7.10;;;6.03;;
71753;SDS011;59593;51.716;7.016;2022-07-24T03:02:32;6.63;;;6.03;;
71753;SDS011;59593;51.716;7.016;2022-07-24T03:04:58;6.63;;;6.00;;
71753;SDS011;59593;51.716;7.016;2022-07-24T03:07:24;9.00;;;5.75;;
71753;SDS011;59593;51.716;7.016;2022-07-24T03:09:50;6.60;;;6.00;;
71753;SDS011;59593;51.716;7.016;2022-07-24T03:12:16;6.78;;;6.10;;
71753;SDS011;59593;51.716;7.016;2022-07-24T03:14:41;6.82;;;5.95;;
71753;SDS011;59593;51.716;7.016;2022-07-24T03:17:07;7.25;;;6.00;;
71753;SDS011;59593;51.716;7.016;2022-07-24T03:19:32;7.43;;;5.97;;
71753;SDS011;59593;51.716;7.016;2022-07-24T03:21:58;7.10;;;6.15;;
71753;SDS011;59593;51.716;7.016;2022-07-24T03:24:24;6.68;;;6.00;;
71753;SDS011;59593;51.716;7.016;2022-07-24T03:26:49;7.15;;;6.45;;
71753;SDS011;59593;51.716;7.016;2022-07-24T03:29:15;7.68;;;6.50;;
71753;SDS011;59593;51.716;7.016;2022-07-24T03:31:41;7.32;;;6.45;;
71753;SDS011;59593;51.716;7.016;2022-07-24T03:34:06;7.18;;;6.40;;
71753;SDS011;59593;51.716;7.016;2022-07-24T03:36:32;7.25;;;6.55;;
71753;SDS011;59593;51.716;7.016;2022-07-24T03:38:58;7.53;;;6.75;;
71753;SDS011;59593;51.716;7.016;2022-07-24T03:41:26;7.53;;;6.25;;
71753;SDS011;59593;51.716;7.016;2022-07-24T03:43:52;6.90;;;6.00;;
71753;SDS011;59593;51.716;7.016;2022-07-24T03:46:17;11.60;;;6.50;;
71753;SDS011;59593;51.716;7.016;2022-07-24T03:48:43;9.32;;;7.13;;
71753;SDS011;59593;51.716;7.016;2022-07-24T03:51:09;7.43;;;6.10;;
71753;SDS011;59593;51.716;7.016;2022-07-24T03:53:34;8.48;;;6.28;;
71753;SDS011;59593;51.716;7.016;2022-07-24T03:56:03;9.10;;;6.45;;
71753;SDS011;59593;51.716;7.016;2022-07-24T03:58:32;6.95;;;6.25;;
71753;SDS011;59593;51.716;7.016;2022-07-24T04:00:58;7.88;;;6.90;;
71753;SDS011;59593;51.716;7.016;2022-07-24T04:03:24;7.88;;;6.40;;
71753;SDS011;59593;51.716;7.016;2022-07-24T04:05:49;8.98;;;6.95;;
71753;SDS011;59593;51.716;7.016;2022-07-24T04:08:15;7.90;;;6.28;;
71753;SDS011;59593;51.716;7.016;2022-07-24T04:10:40;7.35;;;6.63;;
71753;SDS011;59593;51.716;7.016;2022-07-24T04:13:06;8.48;;;6.70;;
71753;SDS011;59593;51.716;7.016;2022-07-24T04:15:32;7.20;;;6.50;;
71753;SDS011;59593;51.716;7.016;2022-07-24T04:17:57;8.48;;;6.80;;
71753;SDS011;59593;51.716;7.016;2022-07-24T04:20:23;8.23;;;6.85;;
71753;SDS011;59593;51.716;7.016;2022-07-24T04:22:48;8.32;;;6.90;;
71753;SDS011;59593;51.716;7.016;2022-07-24T04:25:14;7.55;;;6.65;;
71753;SDS011;59593;51.716;7.016;2022-07-24T04:27:40;8.93;;;6.80;;
71753;SDS011;59593;51.716;7.016;2022-07-24T04:30:06;11.50;;;6.97;;
71753;SDS011;59593;51.716;7.016;2022-07-24T04:32:31;7.28;;;6.57;;
71753;SDS011;59593;51.716;7.016;2022-07-24T04:34:57;7.72;;;6.93;;
71753;SDS011;59593;51.716;7.016;2022-07-24T04:37:23;7.25;;;6.55;;
71753;SDS011;59593;51.716;7.016;2022-07-24T04:39:48;7.30;;;6.60;;
71753;SDS011;59593;51.716;7.016;2022-07-24T04:42:14;9.90;;;7.10;;
71753;SDS011;59593;51.716;7.016;2022-07-24T04:44:40;7.55;;;6.40;;
71753;SDS011;59593;51.716;7.016;2022-07-24T04:47:06;7.70;;;6.90;;
71753;SDS011;59593;51.716;7.016;2022-07-24T04:49:31;10.82;;;6.97;;
71753;SDS011;59593;51.716;7.016;2022-07-24T04:51:57;8.10;;;6.50;;
71753;SDS011;59593;51.716;7.016;2022-07-24T04:54:22;7.85;;;6.70;;
71753;SDS011;59593;51.716;7.016;2022-07-24T04:56:48;8.38;;;7.10;;
71753;SDS011;59593;51.716;7.016;2022-07-24T04:59:14;7.85;;;7.05;;
71753;SDS011;59593;51.716;7.016;2022-07-24T05:01:39;7.55;;;6.85;;
71753;SDS011;59593;51.716;7.016;2022-07-24T05:04:05;8.88;;;7.63;;
71753;SDS011;59593;51.716;7.016;2022-07-24T05:06:31;8.15;;;7.35;;
71753;SDS011;59593;51.716;7.016;2022-07-24T05:08:56;7.63;;;6.72;;
71753;SDS011;59593;51.716;7.016;2022-07-24T05:11:22;9.65;;;7.07;;
71753;SDS011;59593;51.716;7.016;2022-07-24T05:13:47;8.30;;;7.50;;
71753;SDS011;59593;51.716;7.016;2022-07-24T05:16:13;7.70;;;6.90;;
71753;SDS011;59593;51.716;7.016;2022-07-24T05:18:39;8.02;;;7.05;;
71753;SDS011;59593;51.716;7.016;2022-07-24T05:21:04;9.27;;;7.22;;
71753;SDS011;59593;51.716;7.016;2022-07-24T05:23:30;7.80;;;7.00;;
71753;SDS011;59593;51.716;7.016;2022-07-24T05:25:56;7.57;;;6.78;;
71753;SDS011;59593;51.716;7.016;2022-07-24T05:28:21;7.90;;;6.88;;
71753;SDS011;59593;51.716;7.016;2022-07-24T05:30:47;7.97;;;7.18;;
71753;SDS011;59593;51.716;7.016;2022-07-24T05:33:12;7.35;;;6.63;;
71753;SDS011;59593;51.716;7.016;2022-07-24T05:35:38;7.88;;;7.07;;
71753;SDS011;59593;51.716;7.016;2022-07-24T05:38:03;9.05;;;7.40;;
71753;SDS011;59593;51.716;7.016;2022-07-24T05:40:29;11.45;;;7.07;;
71753;SDS011;59593;51.716;7.016;2022-07-24T05:42:55;8.25;;;6.50;;
71753;SDS011;59593;51.716;7.016;2022-07-24T05:45:20;7.55;;;6.75;;
71753;SDS011;59593;51.716;7.016;2022-07-24T05:47:46;8.23;;;6.78;;
71753;SDS011;59593;51.716;7.016;2022-07-24T05:50:12;9.07;;;6.75;;
71753;SDS011;59593;51.716;7.016;2022-07-24T05:52:39;7.93;;;6.90;;
71753;SDS011;59593;51.716;7.016;2022-07-24T05:55:06;8.55;;;6.60;;
71753;SDS011;59593;51.716;7.016;2022-07-24T05:57:32;7.95;;;6.38;;
71753;SDS011;59593;51.716;7.016;2022-07-24T05:59:58;7.97;;;6.82;;
71753;SDS011;59593;51.716;7.016;2022-07-24T06:02:24;8.45;;;6.80;;
71753;SDS011;59593;51.716;7.016;2022-07-24T06:04:50;9.23;;;7.07;;
71753;SDS011;59593;51.716;7.016;2022-07-24T06:07:15;7.25;;;6.55;;
71753;SDS011;59593;51.716;7.016;2022-07-24T06:09:41;8.20;;;7.15;;
71753;SDS011;59593;51.716;7.016;2022-07-24T06:12:07;8.32;;;7.50;;
71753;SDS011;59593;51.716;7.016;2022-07-24T06:14:33;9.63;;;7.15;;
71753;SDS011;59593;51.716;7.016;2022-07-24T06:16:59;9.93;;;7.22;;
71753;SDS011;59593;51.716;7.016;2022-07-24T06:19:25;8.10;;;7.30;;
71753;SDS011;59593;51.716;7.016;2022-07-24T06:21:51;7.68;;;6.97;;
71753;SDS011;59593;51.716;7.016;2022-07-24T06:24:16;9.65;;;7.30;;
71753;SDS011;59593;51.716;7.016;2022-07-24T06:26:42;8.80;;;7.03;;
71753;SDS011;59593;51.716;7.016;2022-07-24T06:29:08;7.55;;;6.78;;
71753;SDS011;59593;51.716;7.016;2022-07-24T06:31:33;10.23;;;7.05;;
71753;SDS011;59593;51.716;7.016;2022-07-24T06:33:59;7.72;;;7.00;;
71753;SDS011;59593;51.716;7.016;2022-07-24T06:36:25;10.80;;;7.10;;
71753;SDS011;59593;51.716;7.016;2022-07-24T06:38:50;8.10;;;7.30;;
71753;SDS011;59593;51.716;7.016;2022-07-24T06:41:16;9.05;;;7.63;;
71753;SDS011;59593;51.716;7.016;2022-07-24T06:43:42;9.85;;;7.55;;
71753;SDS011;59593;51.716;7.016;2022-07-24T06:46:08;12.50;;;8.23;;
71753;SDS011;59593;51.716;7.016;2022-07-24T06:48:33;7.90;;;7.20;;
71753;SDS011;59593;51.716;7.016;2022-07-24T06:50:59;11.30;;;7.63;;
71753;SDS011;59593;51.716;7.016;2022-07-24T06:53:24;8.57;;;7.47;;
71753;SDS011;59593;51.716;7.016;2022-07-24T06:55:50;10.05;;;7.47;;
71753;SDS011;59593;51.716;7.016;2022-07-24T06:58:18;10.38;;;7.28;;
71753;SDS011;59593;51.716;7.016;2022-07-24T07:00:44;9.32;;;6.53;;
71753;SDS011;59593;51.716;7.016;2022-07-24T07:03:11;9.02;;;6.50;;
71753;SDS011;59593;51.716;7.016;2022-07-24T07:05:36;7.85;;;6.90;;
71753;SDS011;59593;51.716;7.016;2022-07-24T07:08:02;7.30;;;6.60;;
71753;SDS011;59593;51.716;7.016;2022-07-24T07:10:28;9.15;;;6.35;;
71753;SDS011;59593;51.716;7.016;2022-07-24T07:12:54;7.30;;;6.40;;
71753;SDS011;59593;51.716;7.016;2022-07-24T07:15:19;7.40;;;6.15;;
71753;SDS011;59593;51.716;7.016;2022-07-24T07:17:45;7.93;;;6.68;;
71753;SDS011;59593;51.716;7.016;2022-07-24T07:20:11;7.40;;;6.43;;
71753;SDS011;59593;51.716;7.016;2022-07-24T07:22:37;9.23;;;6.35;;
71753;SDS011;59593;51.716;7.016;2022-07-24T07:25:04;9.48;;;7.28;;
71753;SDS011;59593;51.716;7.016;2022-07-24T07:27:30;7.35;;;6.60;;
71753;SDS011;59593;51.716;7.016;2022-07-24T07:29:56;10.77;;;6.82;;
71753;SDS011;59593;51.716;7.016;2022-07-24T07:32:21;7.78;;;6.78;;
71753;SDS011;59593;51.716;7.016;2022-07-24T07:34:47;9.45;;;6.78;;
71753;SDS011;59593;51.716;7.016;2022-07-24T07:37:13;10.82;;;7.57;;
71753;SDS011;59593;51.716;7.016;2022-07-24T07:39:38;10.27;;;7.32;;
71753;SDS011;59593;51.716;7.016;2022-07-24T07:42:04;12.05;;;7.30;;
71753;SDS011;59593;51.716;7.016;2022-07-24T07:44:30;9.13;;;7.18;;
71753;SDS011;59593;51.716;7.016;2022-07-24T07:46:56;10.75;;;7.80;;
71753;SDS011;59593;51.716;7.016;2022-07-24T07:49:21;11.38;;;8.40;;
71753;SDS011;59593;51.716;7.016;2022-07-24T07:51:47;10.82;;;8.35;;
71753;SDS011;59593;51.716;7.016;2022-07-24T07:54:16;11.60;;;8.00;;
71753;SDS011;59593;51.716;7.016;2022-07-24T07:56:42;10.13;;;7.93;;
71753;SDS011;59593;51.716;7.016;2022-07-24T07:59:08;10.38;;;8.35;;
71753;SDS011;59593;51.716;7.016;2022-07-24T08:01:34;12.88;;;9.10;;
71753;SDS011;59593;51.716;7.016;2022-07-24T08:04:00;12.13;;;8.43;;
71753;SDS011;59593;51.716;7.016;2022-07-24T08:06:25;17.67;;;10.48;;
71753;SDS011;59593;51.716;7.016;2022-07-24T08:08:51;10.30;;;8.73;;
71753;SDS011;59593;51.716;7.016;2022-07-24T08:11:17;14.88;;;9.80;;
71753;SDS011;59593;51.716;7.016;2022-07-24T08:13:43;13.77;;;9.00;;
71753;SDS011;59593;51.716;7.016;2022-07-24T08:16:08;13.35;;;8.93;;
71753;SDS011;59593;51.716;7.016;2022-07-24T08:18:34;15.35;;;11.02;;
71753;SDS011;59593;51.716;7.016;2022-07-24T08:20:59;15.10;;;10.95;;
71753;SDS011;59593;51.716;7.016;2022-07-24T08:23:25;14.48;;;9.13;;
71753;SDS011;59593;51.716;7.016;2022-07-24T08:25:51;16.55;;;9.57;;
71753;SDS011;59593;51.716;7.016;2022-07-24T08:28:16;14.48;;;10.15;;
71753;SDS011;59593;51.716;7.016;2022-07-24T08:30:42;13.48;;;9.65;;
71753;SDS011;59593;51.716;7.016;2022-07-24T08:33:08;13.20;;;9.40;;
71753;SDS011;59593;51.716;7.016;2022-07-24T08:35:34;12.82;;;10.75;;
71753;SDS011;59593;51.716;7.016;2022-07-24T08:38:00;13.95;;;10.10;;
71753;SDS011;59593;51.716;7.016;2022-07-24T08:40:36;11.38;;;9.90;;
71753;SDS011;59593;51.716;7.016;2022-07-24T08:43:07;13.80;;;10.88;;
71753;SDS011;59593;51.716;7.016;2022-07-24T08:45:37;13.77;;;11.38;;
71753;SDS011;59593;51.716;7.016;2022-07-24T08:48:06;12.60;;;9.57;;
71753;SDS011;59593;51.716;7.016;2022-07-24T08:50:34;14.15;;;10.13;;
71753;SDS011;59593;51.716;7.016;2022-07-24T08:53:01;11.68;;;10.23;;
71753;SDS011;59593;51.716;7.016;2022-07-24T08:55:28;15.10;;;10.23;;
71753;SDS011;59593;51.716;7.016;2022-07-24T08:57:57;11.77;;;10.25;;
71753;SDS011;59593;51.716;7.016;2022-07-24T09:00:30;11.88;;;10.15;;
71753;SDS011;59593;51.716;7.016;2022-07-24T09:02:57;13.13;;;10.25;;
71753;SDS011;59593;51.716;7.016;2022-07-24T09:05:24;15.20;;;10.25;;
71753;SDS011;59593;51.716;7.016;2022-07-24T09:07:49;12.20;;;9.85;;
71753;SDS011;59593;51.716;7.016;2022-07-24T09:10:16;11.93;;;10.15;;
71753;SDS011;59593;51.716;7.016;2022-07-24T09:12:43;11.48;;;9.60;;
71753;SDS011;59593;51.716;7.016;2022-07-24T09:15:15;14.30;;;10.00;;
71753;SDS011;59593;51.716;7.016;2022-07-24T09:17:57;11.75;;;8.90;;
71753;SDS011;59593;51.716;7.016;2022-07-24T09:20:27;11.55;;;10.00;;
71753;SDS011;59593;51.716;7.016;2022-07-24T09:22:54;10.25;;;9.20;;
71753;SDS011;59593;51.716;7.016;2022-07-24T09:27:50;11.20;;;9.50;;
71753;SDS011;59593;51.716;7.016;2022-07-24T09:33:03;12.27;;;8.77;;
71753;SDS011;59593;51.716;7.016;2022-07-24T09:35:36;10.40;;;9.23;;
71753;SDS011;59593;51.716;7.016;2022-07-24T09:38:03;9.77;;;8.77;;
71753;SDS011;59593;51.716;7.016;2022-07-24T09:40:32;11.15;;;9.77;;
71753;SDS011;59593;51.716;7.016;2022-07-24T09:46:11;14.23;;;9.73;;
71753;SDS011;59593;51.716;7.016;2022-07-24T09:48:59;12.93;;;9.05;;
71753;SDS011;59593;51.716;7.016;2022-07-24T09:51:25;11.73;;;8.35;;
71753;SDS011;59593;51.716;7.016;2022-07-24T09:53:53;12.57;;;9.07;;
71753;SDS011;59593;51.716;7.016;2022-07-24T09:56:23;13.60;;;9.00;;
71753;SDS011;59593;51.716;7.016;2022-07-24T09:58:51;11.98;;;9.00;;
71753;SDS011;59593;51.716;7.016;2022-07-24T10:01:19;15.27;;;8.82;;
71753;SDS011;59593;51.716;7.016;2022-07-24T10:03:47;9.30;;;8.40;;
71753;SDS011;59593;51.716;7.016;2022-07-24T10:06:14;11.30;;;9.40;;
71753;SDS011;59593;51.716;7.016;2022-07-24T10:08:44;12.60;;;8.90;;
71753;SDS011;59593;51.716;7.016;2022-07-24T10:11:11;12.48;;;9.13;;
71753;SDS011;59593;51.716;7.016;2022-07-24T10:13:38;9.27;;;8.30;;
71753;SDS011;59593;51.716;7.016;2022-07-24T10:18:52;12.02;;;8.00;;
71753;SDS011;59593;51.716;7.016;2022-07-24T10:24:22;10.43;;;8.30;;
71753;SDS011;59593;51.716;7.016;2022-07-24T10:26:52;9.23;;;8.13;;
71753;SDS011;59593;51.716;7.016;2022-07-24T10:29:29;13.30;;;8.60;;
71753;SDS011;59593;51.716;7.016;2022-07-24T10:31:58;11.52;;;8.40;;
71753;SDS011;59593;51.716;7.016;2022-07-24T10:43:09;12.27;;;8.70;;
71753;SDS011;59593;51.716;7.016;2022-07-24T10:45:40;9.35;;;8.20;;
71753;SDS011;59593;51.716;7.016;2022-07-24T10:53:42;11.00;;;8.43;;
71753;SDS011;59593;51.716;7.016;2022-07-24T10:56:28;10.77;;;8.27;;
71753;SDS011;59593;51.716;7.016;2022-07-24T10:59:04;10.43;;;8.60;;
71753;SDS011;59593;51.716;7.016;2022-07-24T11:01:39;12.50;;;8.27;;
71753;SDS011;59593;51.716;7.016;2022-07-24T11:09:11;11.05;;;8.27;;
71753;SDS011;59593;51.716;7.016;2022-07-24T11:14:46;9.73;;;7.00;;
71753;SDS011;59593;51.716;7.016;2022-07-24T11:20:01;13.35;;;7.70;;
71753;SDS011;59593;51.716;7.016;2022-07-24T11:22:39;10.80;;;7.18;;
71753;SDS011;59593;51.716;7.016;2022-07-24T11:25:21;9.13;;;7.05;;
71753;SDS011;59593;51.716;7.016;2022-07-24T11:27:58;8.18;;;6.90;;
71753;SDS011;59593;51.716;7.016;2022-07-24T11:30:44;9.82;;;7.50;;
71753;SDS011;59593;51.716;7.016;2022-07-24T11:33:11;10.63;;;7.13;;
71753;SDS011;59593;51.716;7.016;2022-07-24T11:35:42;7.20;;;6.50;;
71753;SDS011;59593;51.716;7.016;2022-07-24T11:38:07;8.63;;;6.82;;
71753;SDS011;59593;51.716;7.016;2022-07-24T11:40:34;10.50;;;7.40;;
71753;SDS011;59593;51.716;7.016;2022-07-24T11:43:05;9.60;;;7.10;;
71753;SDS011;59593;51.716;7.016;2022-07-24T11:45:32;11.30;;;6.85;;
71753;SDS011;59593;51.716;7.016;2022-07-24T11:47:57;8.27;;;6.28;;
71753;SDS011;59593;51.716;7.016;2022-07-24T11:50:24;8.00;;;6.60;;
71753;SDS011;59593;51.716;7.016;2022-07-24T11:52:51;9.18;;;6.53;;
71753;SDS011;59593;51.716;7.016;2022-07-24T11:55:18;12.77;;;6.90;;
71753;SDS011;59593;51.716;7.016;2022-07-24T11:57:47;7.88;;;6.55;;
71753;SDS011;59593;51.716;7.016;2022-07-24T12:00:21;10.75;;;7.20;;
71753;SDS011;59593;51.716;7.016;2022-07-24T12:02:49;9.68;;;6.88;;
71753;SDS011;59593;51.716;7.016;2022-07-24T12:05:25;8.43;;;6.22;;
71753;SDS011;59593;51.716;7.016;2022-07-24T12:07:53;7.90;;;6.80;;
71753;SDS011;59593;51.716;7.016;2022-07-24T12:10:21;8.43;;;6.80;;
71753;SDS011;59593;51.716;7.016;2022-07-24T12:12:48;9.98;;;6.38;;
71753;SDS011;59593;51.716;7.016;2022-07-24T12:15:15;12.57;;;7.15;;
71753;SDS011;59593;51.716;7.016;2022-07-24T12:17:58;9.38;;;6.63;;
71753;SDS011;59593;51.716;7.016;2022-07-24T12:20:27;9.30;;;6.63;;
71753;SDS011;59593;51.716;7.016;2022-07-24T12:22:54;10.02;;;6.65;;
71753;SDS011;59593;51.716;7.016;2022-07-24T12:25:21;9.10;;;6.43;;
71753;SDS011;59593;51.716;7.016;2022-07-24T12:27:47;9.00;;;7.13;;
71753;SDS011;59593;51.716;7.016;2022-07-24T12:30:17;7.72;;;7.00;;
71753;SDS011;59593;51.716;7.016;2022-07-24T12:35:32;8.82;;;6.35;;
71753;SDS011;59593;51.716;7.016;2022-07-24T12:38:00;9.15;;;5.88;;
71753;SDS011;59593;51.716;7.016;2022-07-24T12:40:35;7.90;;;6.25;;
71753;SDS011;59593;51.716;7.016;2022-07-24T12:45:37;8.73;;;6.30;;
71753;SDS011;59593;51.716;7.016;2022-07-24T12:48:04;8.63;;;6.07;;
71753;SDS011;59593;51.716;7.016;2022-07-24T12:50:32;9.05;;;5.72;;
71753;SDS011;59593;51.716;7.016;2022-07-24T12:53:07;6.00;;;5.40;;
71753;SDS011;59593;51.716;7.016;2022-07-24T12:55:34;7.22;;;6.22;;
71753;SDS011;59593;51.716;7.016;2022-07-24T12:58:02;8.70;;;6.68;;
71753;SDS011;59593;51.716;7.016;2022-07-24T13:00:29;10.48;;;6.53;;
71753;SDS011;59593;51.716;7.016;2022-07-24T13:02:56;8.57;;;6.90;;
71753;SDS011;59593;51.716;7.016;2022-07-24T13:05:40;7.65;;;6.18;;
71753;SDS011;59593;51.716;7.016;2022-07-24T13:08:07;7.00;;;6.05;;
71753;SDS011;59593;51.716;7.016;2022-07-24T13:10:34;6.60;;;5.97;;
71753;SDS011;59593;51.716;7.016;2022-07-24T13:13:00;7.10;;;6.00;;
71753;SDS011;59593;51.716;7.016;2022-07-24T13:15:26;7.32;;;5.72;;
71753;SDS011;59593;51.716;7.016;2022-07-24T13:17:51;6.53;;;5.50;;
71753;SDS011;59593;51.716;7.016;2022-07-24T13:20:18;7.18;;;5.72;;
71753;SDS011;59593;51.716;7.016;2022-07-24T13:22:44;6.55;;;5.60;;
71753;SDS011;59593;51.716;7.016;2022-07-24T13:25:09;7.95;;;6.38;;
71753;SDS011;59593;51.716;7.016;2022-07-24T13:27:35;6.88;;;5.43;;
71753;SDS011;59593;51.716;7.016;2022-07-24T13:30:01;7.00;;;5.47;;
71753;SDS011;59593;51.716;7.016;2022-07-24T13:32:28;8.15;;;5.68;;
71753;SDS011;59593;51.716;7.016;2022-07-24T13:34:54;7.00;;;6.30;;
71753;SDS011;59593;51.716;7.016;2022-07-24T13:37:20;7.82;;;6.20;;
71753;SDS011;59593;51.716;7.016;2022-07-24T13:39:46;7.88;;;6.22;;
71753;SDS011;59593;51.716;7.016;2022-07-24T13:42:11;6.70;;;6.00;;
71753;SDS011;59593;51.716;7.016;2022-07-24T13:44:39;6.22;;;5.60;;
71753;SDS011;59593;51.716;7.016;2022-07-24T13:47:05;8.85;;;6.40;;
71753;SDS011;59593;51.716;7.016;2022-07-24T13:49:31;7.63;;;5.60;;
71753;SDS011;59593;51.716;7.016;2022-07-24T13:51:57;7.88;;;6.40;;
71753;SDS011;59593;51.716;7.016;2022-07-24T13:54:23;14.55;;;6.88;;
71753;SDS011;59593;51.716;7.016;2022-07-24T13:56:48;9.65;;;6.32;;
71753;SDS011;59593;51.716;7.016;2022-07-24T13:59:15;8.13;;;6.55;;
71753;SDS011;59593;51.716;7.016;2022-07-24T14:01:41;9.00;;;6.72;;
71753;SDS011;59593;51.716;7.016;2022-07-24T14:04:06;8.48;;;6.45;;
71753;SDS011;59593;51.716;7.016;2022-07-24T14:06:35;8.68;;;6.07;;
71753;SDS011;59593;51.716;7.016;2022-07-24T14:09:02;7.10;;;6.35;;
71753;SDS011;59593;51.716;7.016;2022-07-24T14:11:28;8.55;;;6.32;;
71753;SDS011;59593;51.716;7.016;2022-07-24T14:13:54;11.35;;;6.40;;
71753;SDS011;59593;51.716;7.016;2022-07-24T14:16:19;8.25;;;6.18;;
71753;SDS011;59593;51.716;7.016;2022-07-24T14:18:46;7.07;;;5.85;;
71753;SDS011;59593;51.716;7.016;2022-07-24T14:21:12;7.85;;;5.60;;
71753;SDS011;59593;51.716;7.016;2022-07-24T14:23:37;7.13;;;5.88;;
71753;SDS011;59593;51.716;7.016;2022-07-24T14:26:03;9.10;;;6.25;;
71753;SDS011;59593;51.716;7.016;2022-07-24T14:28:30;8.88;;;5.75;;
71753;SDS011;59593;51.716;7.016;2022-07-24T14:30:56;5.95;;;5.22;;
71753;SDS011;59593;51.716;7.016;2022-07-24T14:33:22;8.68;;;5.95;;
71753;SDS011;59593;51.716;7.016;2022-07-24T14:35:47;6.90;;;6.20;;
71753;SDS011;59593;51.716;7.016;2022-07-24T14:38:14;6.95;;;5.30;;
71753;SDS011;59593;51.716;7.016;2022-07-24T14:40:39;25.00;;;7.55;;
71753;SDS011;59593;51.716;7.016;2022-07-24T14:43:05;6.75;;;5.65;;
71753;SDS011;59593;51.716;7.016;2022-07-24T14:45:30;9.15;;;6.30;;
71753;SDS011;59593;51.716;7.016;2022-07-24T14:47:56;8.20;;;5.63;;
71753;SDS011;59593;51.716;7.016;2022-07-24T14:50:22;6.20;;;5.53;;
71753;SDS011;59593;51.716;7.016;2022-07-24T14:52:48;7.93;;;5.40;;
71753;SDS011;59593;51.716;7.016;2022-07-24T14:55:13;8.20;;;5.47;;
71753;SDS011;59593;51.716;7.016;2022-07-24T14:57:39;6.97;;;5.30;;
71753;SDS011;59593;51.716;7.016;2022-07-24T15:00:05;7.47;;;5.60;;
71753;SDS011;59593;51.716;7.016;2022-07-24T15:02:31;6.90;;;5.65;;
71753;SDS011;59593;51.716;7.016;2022-07-24T15:04:57;9.82;;;5.30;;
71753;SDS011;59593;51.716;7.016;2022-07-24T15:07:23;6.50;;;5.43;;
71753;SDS011;59593;51.716;7.016;2022-07-24T15:09:49;8.50;;;5.55;;
71753;SDS011;59593;51.716;7.016;2022-07-24T15:12:15;6.00;;;5.40;;
71753;SDS011;59593;51.716;7.016;2022-07-24T15:14:40;8.98;;;5.57;;
71753;SDS011;59593;51.716;7.016;2022-07-24T15:17:06;6.25;;;5.60;;
71753;SDS011;59593;51.716;7.016;2022-07-24T15:19:31;7.30;;;5.30;;
71753;SDS011;59593;51.716;7.016;2022-07-24T15:21:57;7.72;;;5.50;;
71753;SDS011;59593;51.716;7.016;2022-07-24T15:24:23;6.80;;;5.28;;
71753;SDS011;59593;51.716;7.016;2022-07-24T15:26:48;8.88;;;5.43;;